createdAt,value
2018-07-31T00:00:51.819Z,7.07
2018-07-31T00:03:20.304Z,6.40
2018-07-31T00:05:48.395Z,7.27
2018-07-31T00:08:16.686Z,7.30
2018-07-31T00:10:45.219Z,7.27
2018-07-31T00:13:14.133Z,6.90
2018-07-31T00:15:42.819Z,7.20
2018-07-31T00:18:11.264Z,7.90
2018-07-31T00:20:39.612Z,7.37
2018-07-31T00:23:07.780Z,7.70
2018-07-31T00:25:35.996Z,7.40
2018-07-31T00:28:04.144Z,6.70
2018-07-31T00:30:33.031Z,7.17
2018-07-31T00:33:01.647Z,7.50
2018-07-31T00:35:29.976Z,6.90
2018-07-31T00:37:58.093Z,6.90
2018-07-31T00:40:26.164Z,7.43
2018-07-31T00:42:55.017Z,6.40
2018-07-31T00:45:23.484Z,7.70
2018-07-31T00:47:51.604Z,7.30
2018-07-31T00:50:20.140Z,7.13
2018-07-31T00:52:48.847Z,8.33
2018-07-31T00:55:17.237Z,7.47
2018-07-31T00:57:45.599Z,7.50
2018-07-31T01:00:13.868Z,7.40
2018-07-31T01:02:42.701Z,7.80
2018-07-31T01:05:10.971Z,8.30
2018-07-31T01:07:39.581Z,7.67
2018-07-31T01:10:07.976Z,7.93
2018-07-31T01:12:37.157Z,8.07
2018-07-31T01:15:05.804Z,7.33
2018-07-31T01:17:34.281Z,7.87
2018-07-31T01:20:02.880Z,7.93
2018-07-31T01:22:31.775Z,8.00
2018-07-31T01:25:00.177Z,8.33
2018-07-31T01:27:28.762Z,7.33
2018-07-31T01:29:57.328Z,7.67
2018-07-31T01:32:25.833Z,7.90
2018-07-31T01:34:54.393Z,7.53
2018-07-31T01:37:23.237Z,7.50
2018-07-31T01:39:51.936Z,8.10
2018-07-31T01:42:21.001Z,7.90
2018-07-31T01:44:49.515Z,7.70
2018-07-31T01:47:18.463Z,8.23
2018-07-31T01:49:47.254Z,8.50
2018-07-31T01:52:15.389Z,8.07
2018-07-31T01:54:44.520Z,7.87
2018-07-31T01:57:13.209Z,7.40
2018-07-31T01:59:41.778Z,8.27
2018-07-31T02:02:10.227Z,7.60
2018-07-31T02:04:38.567Z,8.70
2018-07-31T02:07:07.747Z,7.80
2018-07-31T02:09:36.439Z,8.20
2018-07-31T02:12:04.774Z,7.90
2018-07-31T02:14:33.252Z,8.90
2018-07-31T02:17:01.797Z,8.50
2018-07-31T02:19:30.606Z,7.97
2018-07-31T02:21:59.088Z,8.43
2018-07-31T02:24:27.296Z,7.40
2018-07-31T02:26:55.880Z,7.63
2018-07-31T02:29:29.645Z,7.40
2018-07-31T02:31:58.376Z,8.50
2018-07-31T02:34:26.456Z,8.00
2018-07-31T02:36:55.107Z,7.70
2018-07-31T02:39:23.762Z,8.17
2018-07-31T02:41:52.091Z,7.70
2018-07-31T02:44:20.615Z,8.33
2018-07-31T02:46:49.511Z,7.70
2018-07-31T02:49:17.914Z,6.87
2018-07-31T02:51:46.352Z,7.57
2018-07-31T02:54:14.993Z,7.40
2018-07-31T02:56:44.700Z,8.20
2018-07-31T02:59:14.922Z,6.83
2018-07-31T03:01:44.905Z,7.23
2018-07-31T03:04:14.085Z,7.60
2018-07-31T03:06:43.649Z,6.83
2018-07-31T03:09:12.092Z,8.50
2018-07-31T03:11:40.559Z,7.73
2018-07-31T03:14:08.856Z,7.63
2018-07-31T03:16:37.366Z,7.43
2018-07-31T03:19:06.257Z,7.17
2018-07-31T03:21:34.759Z,8.30
2018-07-31T03:24:03.211Z,7.60
2018-07-31T03:26:31.615Z,8.67
2018-07-31T03:29:00.256Z,7.57
2018-07-31T03:31:29.244Z,7.37
2018-07-31T03:33:57.839Z,8.33
2018-07-31T03:36:26.511Z,8.90
2018-07-31T03:38:55.457Z,8.13
2018-07-31T03:41:23.899Z,8.13
2018-07-31T03:43:52.393Z,8.50
2018-07-31T03:46:20.843Z,8.60
2018-07-31T03:48:49.040Z,8.03
2018-07-31T03:51:17.608Z,8.03
2018-07-31T03:53:45.838Z,7.90
2018-07-31T03:56:14.255Z,8.23
2018-07-31T03:58:42.841Z,8.03
2018-07-31T04:01:11.561Z,9.30
2018-07-31T04:03:40.236Z,8.67
2018-07-31T04:06:08.796Z,8.47
2018-07-31T04:08:37.767Z,8.60
2018-07-31T04:11:08.357Z,8.90
2018-07-31T04:13:36.851Z,7.63
2018-07-31T04:16:07.662Z,8.60
2018-07-31T04:18:36.177Z,8.93
2018-07-31T04:21:04.820Z,8.70
2018-07-31T04:23:33.488Z,7.43
2018-07-31T04:26:01.746Z,8.80
2018-07-31T04:28:30.148Z,8.87
2018-07-31T04:30:58.871Z,8.70
2018-07-31T04:33:27.371Z,8.30
2018-07-31T04:35:56.097Z,7.83
2018-07-31T04:38:24.455Z,8.37
2018-07-31T04:40:53.336Z,8.40
2018-07-31T04:43:21.993Z,8.33
2018-07-31T04:45:50.651Z,9.30
2018-07-31T04:48:19.292Z,8.23
2018-07-31T04:50:47.631Z,8.47
2018-07-31T04:53:16.191Z,8.60
2018-07-31T04:55:44.851Z,9.53
2018-07-31T04:58:13.622Z,9.30
2018-07-31T05:00:41.991Z,9.60
2018-07-31T05:03:10.768Z,8.80
2018-07-31T05:05:39.130Z,9.33
2018-07-31T05:08:07.791Z,9.40
2018-07-31T05:10:36.457Z,8.83
2018-07-31T05:13:04.807Z,9.27
2018-07-31T05:15:33.417Z,8.97
2018-07-31T05:18:02.018Z,10.47
2018-07-31T05:20:30.524Z,9.60
2018-07-31T05:22:58.851Z,8.80
2018-07-31T05:25:27.370Z,9.70
2018-07-31T05:27:55.989Z,9.87
2018-07-31T05:30:24.363Z,10.57
2018-07-31T05:32:52.939Z,8.47
2018-07-31T05:35:21.590Z,9.90
2018-07-31T05:37:50.118Z,9.47
2018-07-31T05:40:18.670Z,9.30
2018-07-31T05:42:46.811Z,8.83
2018-07-31T05:45:15.272Z,9.77
2018-07-31T05:47:44.427Z,8.43
2018-07-31T05:50:12.532Z,10.37
2018-07-31T05:52:40.860Z,7.97
2018-07-31T05:55:08.977Z,9.20
2018-07-31T05:57:37.443Z,8.57
2018-07-31T06:00:06.825Z,9.17
2018-07-31T06:02:34.920Z,9.60
2018-07-31T06:05:03.606Z,8.47
2018-07-31T06:07:32.286Z,8.83
2018-07-31T06:10:00.438Z,9.50
2018-07-31T06:12:28.961Z,8.70
2018-07-31T06:14:57.279Z,9.37
2018-07-31T06:17:25.924Z,9.57
2018-07-31T06:19:54.519Z,8.07
2018-07-31T06:22:23.146Z,9.57
2018-07-31T06:24:51.291Z,8.50
2018-07-31T06:27:19.416Z,8.43
2018-07-31T06:29:47.444Z,8.20
2018-07-31T06:32:15.781Z,9.17
2018-07-31T06:34:44.100Z,8.77
2018-07-31T06:37:12.555Z,9.77
2018-07-31T06:39:41.519Z,8.10
2018-07-31T06:42:10.738Z,8.87
2018-07-31T06:44:39.122Z,8.40
2018-07-31T06:47:07.703Z,9.30
2018-07-31T06:49:35.994Z,8.80
2018-07-31T06:52:04.569Z,8.20
2018-07-31T06:54:33.089Z,8.50
2018-07-31T06:57:01.354Z,8.97
2018-07-31T06:59:29.404Z,7.50
2018-07-31T07:01:57.527Z,8.87
2018-07-31T07:04:25.905Z,8.70
2018-07-31T07:06:54.031Z,8.73
2018-07-31T07:09:24.454Z,8.30
2018-07-31T07:11:53.379Z,8.80
2018-07-31T07:14:21.643Z,7.70
2018-07-31T07:16:49.843Z,8.13
2018-07-31T07:19:17.935Z,8.70
2018-07-31T07:21:46.207Z,7.47
2018-07-31T07:24:15.214Z,8.10
2018-07-31T07:26:43.692Z,8.73
2018-07-31T07:29:11.759Z,8.63
2018-07-31T07:31:39.901Z,7.50
2018-07-31T07:34:08.311Z,7.53
2018-07-31T07:36:36.916Z,7.40
2018-07-31T07:39:08.673Z,7.67
2018-07-31T07:41:37.087Z,7.30
2018-07-31T07:44:06.192Z,6.90
2018-07-31T07:46:34.820Z,7.23
2018-07-31T07:49:03.212Z,7.03
2018-07-31T07:51:31.690Z,7.40
2018-07-31T07:54:00.305Z,8.03
2018-07-31T07:56:28.741Z,7.30
2018-07-31T07:58:57.443Z,7.13
2018-07-31T08:01:25.846Z,7.80
2018-07-31T08:03:55.670Z,7.60
2018-07-31T08:06:24.852Z,7.10
2018-07-31T08:08:53.130Z,7.03
2018-07-31T08:11:22.372Z,6.93
2018-07-31T08:13:50.520Z,6.80
2018-07-31T08:16:19.562Z,6.77
2018-07-31T08:18:48.384Z,6.63
2018-07-31T08:21:18.212Z,6.40
2018-07-31T08:23:46.739Z,6.43
2018-07-31T08:26:15.172Z,6.60
2018-07-31T08:28:44.006Z,6.83
2018-07-31T08:31:12.245Z,6.17
2018-07-31T08:33:40.742Z,6.47
2018-07-31T08:36:09.160Z,6.10
2018-07-31T08:38:37.276Z,5.90
2018-07-31T08:41:06.066Z,6.50
2018-07-31T08:43:34.837Z,6.10
2018-07-31T08:46:03.973Z,5.93
2018-07-31T08:48:32.755Z,6.53
2018-07-31T08:51:00.908Z,6.97
2018-07-31T08:53:29.254Z,5.70
2018-07-31T08:55:57.487Z,6.03
2018-07-31T08:58:25.711Z,6.60
2018-07-31T09:00:54.292Z,6.27
2018-07-31T09:03:22.504Z,5.70
2018-07-31T09:05:50.688Z,6.27
2018-07-31T09:08:19.901Z,6.90
2018-07-31T09:10:48.327Z,6.27
2018-07-31T09:13:16.510Z,5.57
2018-07-31T09:15:45.413Z,5.50
2018-07-31T09:18:13.800Z,5.97
2018-07-31T09:20:47.279Z,5.43
2018-07-31T09:23:15.383Z,6.57
2018-07-31T09:25:44.975Z,5.30
2018-07-31T09:28:14.133Z,5.60
2018-07-31T09:30:47.845Z,5.17
2018-07-31T09:33:16.627Z,5.27
2018-07-31T09:35:45.169Z,5.30
2018-07-31T09:38:13.293Z,5.20
2018-07-31T09:40:41.746Z,5.80
2018-07-31T09:43:09.848Z,5.20
2018-07-31T09:45:38.072Z,4.77
2018-07-31T09:48:06.153Z,4.77
2018-07-31T09:50:34.652Z,4.50
2018-07-31T09:53:03.865Z,4.90
2018-07-31T09:55:32.026Z,5.03
2018-07-31T09:58:00.247Z,4.67
2018-07-31T10:00:33.979Z,4.77
2018-07-31T10:03:06.536Z,4.43
2018-07-31T10:05:36.059Z,4.60
2018-07-31T10:08:05.682Z,4.67
2018-07-31T10:10:33.871Z,4.43
2018-07-31T10:13:02.478Z,4.40
2018-07-31T10:15:30.793Z,4.23
2018-07-31T10:17:58.952Z,4.60
2018-07-31T10:20:27.552Z,4.23
2018-07-31T10:22:55.775Z,4.53
2018-07-31T10:25:25.669Z,4.90
2018-07-31T10:27:54.045Z,4.67
2018-07-31T10:30:22.146Z,4.67
2018-07-31T10:32:51.973Z,4.50
2018-07-31T10:35:20.605Z,4.70
2018-07-31T10:37:48.816Z,4.60
2018-07-31T10:40:17.644Z,4.60
2018-07-31T10:42:45.834Z,4.17
2018-07-31T10:45:14.309Z,4.37
2018-07-31T10:47:42.637Z,4.47
2018-07-31T10:50:12.808Z,4.67
2018-07-31T10:52:41.303Z,4.77
2018-07-31T10:55:09.644Z,4.40
2018-07-31T10:57:38.327Z,4.27
2018-07-31T11:00:06.765Z,4.50
2018-07-31T11:02:35.339Z,4.80
2018-07-31T11:05:04.125Z,4.60
2018-07-31T11:07:32.219Z,4.60
2018-07-31T11:10:01.375Z,4.87
2018-07-31T11:12:29.877Z,4.60
2018-07-31T11:14:58.594Z,5.30
2018-07-31T11:17:27.911Z,4.73
2018-07-31T11:19:58.307Z,4.30
2018-07-31T11:22:26.656Z,4.40
2018-07-31T11:24:55.590Z,4.83
2018-07-31T11:27:23.858Z,4.77
2018-07-31T11:29:52.153Z,4.87
2018-07-31T11:32:20.373Z,5.40
2018-07-31T11:34:49.207Z,4.80
2018-07-31T11:37:17.928Z,5.70
2018-07-31T11:39:46.043Z,5.07
2018-07-31T11:42:14.099Z,6.00
2018-07-31T11:44:42.715Z,5.60
2018-07-31T11:47:11.075Z,5.27
2018-07-31T11:49:39.520Z,6.10
2018-07-31T11:52:08.084Z,5.03
2018-07-31T11:54:36.272Z,4.70
2018-07-31T11:57:05.653Z,5.43
2018-07-31T11:59:33.953Z,4.17
2018-07-31T12:02:02.101Z,4.90
2018-07-31T12:04:30.553Z,5.13
2018-07-31T12:06:59.314Z,4.83
2018-07-31T12:09:28.342Z,4.73
2018-07-31T12:11:56.546Z,5.30
2018-07-31T12:14:24.703Z,5.40
2018-07-31T12:16:53.141Z,4.93
2018-07-31T12:19:21.233Z,3.97
2018-07-31T12:21:50.204Z,4.60
2018-07-31T12:24:18.553Z,4.73
2018-07-31T12:26:46.791Z,4.23
2018-07-31T12:29:16.306Z,4.30
2018-07-31T12:31:44.693Z,4.43
2018-07-31T12:34:13.324Z,4.40
2018-07-31T12:36:41.838Z,4.20
2018-07-31T12:39:12.714Z,4.37
2018-07-31T12:41:41.616Z,4.40
2018-07-31T12:44:09.904Z,4.67
2018-07-31T12:46:38.347Z,4.10
2018-07-31T12:49:06.885Z,4.20
2018-07-31T12:51:35.070Z,4.60
2018-07-31T12:54:03.663Z,3.80
2018-07-31T12:56:32.083Z,4.23
2018-07-31T12:59:00.514Z,4.47
2018-07-31T13:01:29.529Z,4.20
2018-07-31T13:03:58.798Z,4.10
2018-07-31T13:06:27.542Z,4.03
2018-07-31T13:08:56.970Z,4.30
2018-07-31T13:11:27.846Z,5.03
2018-07-31T13:13:56.441Z,5.00
2018-07-31T13:16:24.861Z,4.00
2018-07-31T13:18:53.182Z,4.57
2018-07-31T13:21:21.832Z,4.40
2018-07-31T13:23:49.998Z,5.70
2018-07-31T13:26:18.476Z,5.20
2018-07-31T13:28:47.119Z,5.17
2018-07-31T13:31:15.210Z,5.63
2018-07-31T13:33:45.098Z,4.73
2018-07-31T13:36:13.752Z,5.00
2018-07-31T13:38:42.731Z,5.13
2018-07-31T13:41:11.516Z,5.07
2018-07-31T13:43:41.570Z,5.10
2018-07-31T13:46:10.255Z,5.10
2018-07-31T13:48:38.618Z,5.00
2018-07-31T13:51:07.842Z,5.57
2018-07-31T13:53:38.048Z,4.97
2018-07-31T13:56:07.353Z,4.80
2018-07-31T13:58:35.478Z,4.13
2018-07-31T14:01:07.736Z,5.13
2018-07-31T14:03:38.821Z,4.60
2018-07-31T14:06:09.226Z,5.03
2018-07-31T14:08:39.449Z,4.80
2018-07-31T14:11:10.849Z,5.10
2018-07-31T14:13:57.997Z,4.90
2018-07-31T14:16:30.459Z,4.73
2018-07-31T14:19:01.265Z,4.70
2018-07-31T14:21:31.521Z,4.60
2018-07-31T14:23:59.880Z,4.73
2018-07-31T14:26:30.324Z,4.90
2018-07-31T14:28:59.249Z,4.90
2018-07-31T14:31:32.291Z,4.77
2018-07-31T14:34:00.845Z,4.53
2018-07-31T14:36:29.378Z,5.27
2018-07-31T14:38:57.755Z,4.57
2018-07-31T14:41:26.346Z,5.30
2018-07-31T14:43:54.762Z,4.77
2018-07-31T14:46:26.869Z,4.00
2018-07-31T14:48:56.707Z,4.50
2018-07-31T14:51:25.515Z,4.73
2018-07-31T14:53:54.545Z,4.67
2018-07-31T14:56:24.073Z,4.47
2018-07-31T14:58:53.026Z,4.80
2018-07-31T15:01:21.875Z,4.43
2018-07-31T15:03:50.952Z,4.40
2018-07-31T15:06:19.383Z,4.40
2018-07-31T15:08:47.683Z,4.00
2018-07-31T15:11:15.995Z,4.50
2018-07-31T15:13:46.580Z,4.43
2018-07-31T15:16:18.071Z,4.90
2018-07-31T15:18:47.805Z,4.10
2018-07-31T15:21:16.602Z,4.00
2018-07-31T15:23:46.162Z,4.10
2018-07-31T15:26:16.330Z,3.60
2018-07-31T15:28:45.738Z,4.57
2018-07-31T15:31:14.610Z,4.00
2018-07-31T15:33:43.086Z,4.50
2018-07-31T15:36:11.776Z,4.07
2018-07-31T15:38:40.313Z,4.10
2018-07-31T15:41:08.778Z,4.47
2018-07-31T15:43:36.837Z,4.37
2018-07-31T15:46:05.953Z,4.27
2018-07-31T15:48:34.292Z,4.20
2018-07-31T15:51:03.154Z,4.53
2018-07-31T15:53:31.484Z,4.63
2018-07-31T15:56:00.339Z,4.67
2018-07-31T15:58:28.879Z,4.40
2018-07-31T16:00:57.282Z,4.33
2018-07-31T16:03:27.318Z,4.60
2018-07-31T16:05:56.776Z,4.57
2018-07-31T16:08:25.156Z,4.47
2018-07-31T16:10:53.591Z,4.80
2018-07-31T16:13:23.260Z,4.60
2018-07-31T16:15:51.861Z,4.97
2018-07-31T16:18:20.921Z,4.83
2018-07-31T16:20:49.617Z,3.97
2018-07-31T16:23:18.092Z,4.10
2018-07-31T16:25:46.959Z,4.70
2018-07-31T16:28:17.077Z,4.67
2018-07-31T16:30:45.391Z,4.43
2018-07-31T16:33:16.034Z,4.03
2018-07-31T16:35:45.133Z,4.10
2018-07-31T16:38:15.013Z,4.33
2018-07-31T16:40:43.579Z,3.80
2018-07-31T16:43:11.787Z,4.60
2018-07-31T16:45:40.000Z,4.23
2018-07-31T16:48:08.267Z,4.17
2018-07-31T16:50:36.913Z,4.50
2018-07-31T16:53:05.820Z,4.30
2018-07-31T16:55:34.310Z,5.13
2018-07-31T16:58:02.736Z,4.87
2018-07-31T17:00:32.574Z,5.30
2018-07-31T17:03:01.001Z,5.20
2018-07-31T17:05:29.327Z,5.50
2018-07-31T17:07:57.584Z,5.27
2018-07-31T17:10:26.178Z,5.00
2018-07-31T17:12:54.557Z,5.90
2018-07-31T17:15:22.973Z,5.10
2018-07-31T17:17:51.105Z,5.20
2018-07-31T17:20:19.538Z,5.00
2018-07-31T17:22:48.184Z,4.73
2018-07-31T17:25:20.067Z,4.40
2018-07-31T17:27:50.679Z,4.13
2018-07-31T17:30:19.859Z,4.83
2018-07-31T17:32:48.279Z,4.30
2018-07-31T17:35:16.863Z,4.53
2018-07-31T17:37:45.566Z,5.17
2018-07-31T17:40:13.926Z,4.50
2018-07-31T17:42:43.561Z,5.13
2018-07-31T17:45:12.712Z,4.60
2018-07-31T17:47:41.035Z,5.73
2018-07-31T17:50:10.008Z,5.10
2018-07-31T17:52:38.638Z,4.60
2018-07-31T17:55:07.211Z,4.70
2018-07-31T17:57:35.927Z,4.70
2018-07-31T18:00:06.009Z,4.93
2018-07-31T18:02:34.710Z,4.60
2018-07-31T18:05:03.657Z,4.30
2018-07-31T18:07:33.540Z,4.60
2018-07-31T18:10:01.923Z,4.50
2018-07-31T18:12:31.412Z,4.70
2018-07-31T18:15:00.996Z,5.00
2018-07-31T18:17:32.325Z,4.80
2018-07-31T18:20:00.472Z,5.07
2018-07-31T18:22:36.201Z,4.57
2018-07-31T18:25:14.433Z,4.20
2018-07-31T18:27:44.397Z,4.90
2018-07-31T18:30:13.307Z,4.67
2018-07-31T18:32:43.947Z,4.73
2018-07-31T18:35:20.189Z,4.80
2018-07-31T18:37:49.589Z,4.90
2018-07-31T18:40:18.230Z,5.33
2018-07-31T18:42:47.742Z,4.67
2018-07-31T18:45:15.942Z,4.80
2018-07-31T18:47:44.492Z,5.70
2018-07-31T18:50:12.661Z,5.07
2018-07-31T18:52:40.815Z,5.20
2018-07-31T18:55:09.271Z,5.97
2018-07-31T18:57:37.377Z,5.03
2018-07-31T19:00:06.378Z,5.40
2018-07-31T19:02:34.792Z,5.03
2018-07-31T19:05:03.312Z,5.30
2018-07-31T19:07:32.033Z,5.00
2018-07-31T19:10:00.267Z,5.30
2018-07-31T19:12:28.671Z,5.20
2018-07-31T19:14:58.046Z,4.90
2018-07-31T19:17:26.240Z,5.40
2018-07-31T19:19:54.690Z,5.27
2018-07-31T19:22:23.034Z,5.13
2018-07-31T19:24:51.674Z,5.37
2018-07-31T19:27:20.212Z,4.73
2018-07-31T19:29:48.677Z,4.77
2018-07-31T19:32:16.802Z,5.50
2018-07-31T19:34:45.535Z,6.20
2018-07-31T19:37:13.726Z,6.53
2018-07-31T19:39:41.965Z,5.30
2018-07-31T19:42:10.669Z,4.97
2018-07-31T19:44:39.074Z,4.80
2018-07-31T19:47:08.312Z,5.20
2018-07-31T19:49:36.436Z,5.47
2018-07-31T19:52:05.604Z,4.80
2018-07-31T19:54:34.853Z,6.00
2018-07-31T19:57:03.340Z,5.50
2018-07-31T19:59:31.707Z,5.57
2018-07-31T20:02:00.060Z,5.57
2018-07-31T20:04:30.060Z,5.50
2018-07-31T20:06:58.565Z,5.50
2018-07-31T20:09:28.086Z,5.60
2018-07-31T20:11:57.337Z,6.07
2018-07-31T20:14:28.838Z,6.13
2018-07-31T20:16:58.562Z,5.63
2018-07-31T20:19:28.011Z,5.43
2018-07-31T20:21:56.602Z,5.23
2018-07-31T20:24:28.643Z,6.20
2018-07-31T20:26:57.932Z,6.10
2018-07-31T20:29:26.704Z,6.13
2018-07-31T20:31:57.505Z,5.60
2018-07-31T20:34:26.023Z,6.90
2018-07-31T20:36:55.160Z,6.90
2018-07-31T20:39:28.584Z,6.70
2018-07-31T20:41:56.772Z,6.50
2018-07-31T20:44:28.685Z,6.30
2018-07-31T20:47:00.676Z,6.37
2018-07-31T20:49:31.289Z,6.20
2018-07-31T20:52:00.172Z,5.73
2018-07-31T20:54:28.267Z,6.30
2018-07-31T20:56:57.171Z,5.23
2018-07-31T20:59:25.620Z,7.07
2018-07-31T21:01:54.153Z,6.30
2018-07-31T21:04:22.419Z,5.97
2018-07-31T21:06:51.254Z,5.80
2018-07-31T21:09:19.919Z,5.10
2018-07-31T21:11:49.203Z,4.90
2018-07-31T21:14:18.038Z,5.23
2018-07-31T21:16:46.615Z,5.17
2018-07-31T21:19:15.285Z,5.80
2018-07-31T21:21:43.490Z,6.30
2018-07-31T21:24:11.996Z,6.00
2018-07-31T21:26:42.389Z,5.50
2018-07-31T21:29:11.996Z,5.20
2018-07-31T21:31:44.505Z,5.00
2018-07-31T21:34:12.965Z,4.90
2018-07-31T21:36:41.377Z,5.30
2018-07-31T21:39:12.255Z,6.30
2018-07-31T21:41:43.294Z,5.77
2018-07-31T21:44:15.690Z,6.70
2018-07-31T21:46:45.752Z,6.53
2018-07-31T21:49:14.960Z,5.50
2018-07-31T21:51:46.636Z,5.40
2018-07-31T21:54:15.836Z,5.87
2018-07-31T21:56:46.210Z,5.60
2018-07-31T21:59:15.793Z,6.20
2018-07-31T22:01:46.499Z,6.00
2018-07-31T22:04:21.881Z,6.40
2018-07-31T22:06:51.883Z,6.67
2018-07-31T22:09:27.091Z,5.60
2018-07-31T22:11:57.336Z,6.13
2018-07-31T22:14:27.203Z,6.37
2018-07-31T22:16:56.793Z,6.60
2018-07-31T22:19:25.986Z,6.60
2018-07-31T22:21:54.307Z,5.60
2018-07-31T22:24:23.828Z,6.67
2018-07-31T22:26:52.581Z,6.80
2018-07-31T22:29:23.271Z,6.40
2018-07-31T22:31:53.718Z,6.23
2018-07-31T22:34:22.645Z,6.97
2018-07-31T22:36:51.627Z,6.33
2018-07-31T22:39:20.924Z,6.90
2018-07-31T22:41:49.738Z,6.70
2018-07-31T22:44:18.273Z,6.87
2018-07-31T22:46:46.879Z,6.80
2018-07-31T22:49:15.403Z,6.07
2018-07-31T22:51:43.931Z,6.10
2018-07-31T22:54:12.138Z,7.20
2018-07-31T22:56:40.601Z,6.60
2018-07-31T22:59:10.942Z,6.03
2018-07-31T23:01:39.716Z,6.13
2018-07-31T23:04:08.119Z,6.50
2018-07-31T23:06:36.248Z,6.70
2018-07-31T23:09:07.489Z,6.80
2018-07-31T23:11:35.885Z,5.70
2018-07-31T23:14:05.076Z,6.57
2018-07-31T23:16:33.984Z,7.77
2018-07-31T23:19:02.408Z,6.73
2018-07-31T23:21:30.982Z,6.80
2018-07-31T23:24:00.131Z,6.73
2018-07-31T23:26:28.543Z,6.50
2018-07-31T23:28:56.658Z,6.20
2018-07-31T23:31:25.638Z,6.90
2018-07-31T23:33:53.760Z,7.67
2018-07-31T23:36:21.868Z,7.03
2018-07-31T23:38:50.825Z,6.93
2018-07-31T23:41:19.550Z,8.23
2018-07-31T23:43:48.183Z,7.67
2018-07-31T23:46:16.748Z,7.67
2018-07-31T23:48:45.306Z,8.07
2018-07-31T23:51:13.692Z,7.37
2018-07-31T23:53:42.016Z,7.77
2018-07-31T23:56:11.466Z,7.90
2018-07-31T23:58:39.899Z,7.97
